createdAt,value
2019-05-01T00:01:44.217Z,30.70
2019-05-01T00:04:35.021Z,35.57
2019-05-01T00:07:09.820Z,36.50
2019-05-01T00:09:38.966Z,34.43
2019-05-01T00:12:07.960Z,35.97
2019-05-01T00:14:36.968Z,37.77
2019-05-01T00:17:05.888Z,28.90
2019-05-01T00:19:34.819Z,31.83
2019-05-01T00:22:04.967Z,33.20
2019-05-01T00:24:33.793Z,31.27
2019-05-01T00:27:02.628Z,31.97
2019-05-01T00:29:31.541Z,30.53
2019-05-01T00:32:00.533Z,32.50
2019-05-01T00:34:29.354Z,37.80
2019-05-01T00:36:58.285Z,29.43
2019-05-01T00:39:27.106Z,30.07
2019-05-01T00:41:55.926Z,30.17
2019-05-01T00:44:24.856Z,30.40
2019-05-01T00:46:53.734Z,30.00
2019-05-01T00:49:22.539Z,27.63
2019-05-01T00:51:51.466Z,29.03
2019-05-01T00:54:20.353Z,28.77
2019-05-01T00:57:20.498Z,28.27
2019-05-01T01:00:03.452Z,26.07
2019-05-01T01:02:36.241Z,27.93
2019-05-01T01:05:06.156Z,28.63
2019-05-01T01:07:35.349Z,26.83
2019-05-01T01:10:05.435Z,26.77
2019-05-01T01:12:34.253Z,25.30
2019-05-01T01:15:03.228Z,25.67
2019-05-01T01:17:32.102Z,25.13
2019-05-01T01:20:00.974Z,24.93
2019-05-01T01:22:29.860Z,23.93
2019-05-01T01:24:59.078Z,23.00
2019-05-01T01:27:28.160Z,24.63
2019-05-01T01:29:57.169Z,24.37
2019-05-01T01:32:26.096Z,21.83
2019-05-01T01:34:55.017Z,23.97
2019-05-01T01:37:24.008Z,21.27
2019-05-01T01:39:53.047Z,23.90
2019-05-01T01:42:22.305Z,22.50
2019-05-01T01:45:02.735Z,23.27
2019-05-01T01:47:31.632Z,22.57
2019-05-01T01:50:00.597Z,21.50
2019-05-01T01:52:30.014Z,21.20
2019-05-01T01:54:59.174Z,20.83
2019-05-01T01:57:28.085Z,21.97
2019-05-01T01:59:57.071Z,18.73
2019-05-01T02:02:38.672Z,22.20
2019-05-01T02:05:13.419Z,18.20
2019-05-01T02:07:42.755Z,20.13
2019-05-01T02:10:11.773Z,18.17
2019-05-01T02:12:41.416Z,18.10
2019-05-01T02:15:10.700Z,20.27
2019-05-01T02:17:39.662Z,18.03
2019-05-01T02:20:10.012Z,17.80
2019-05-01T02:22:38.997Z,18.93
2019-05-01T02:25:09.571Z,18.63
2019-05-01T02:27:44.882Z,17.80
2019-05-01T02:30:16.024Z,18.30
2019-05-01T02:32:47.415Z,19.80
2019-05-01T02:35:17.040Z,19.30
2019-05-01T02:37:47.522Z,20.37
2019-05-01T02:40:44.017Z,20.60
2019-05-01T02:43:16.292Z,19.60
2019-05-01T02:45:47.865Z,18.90
2019-05-01T02:48:19.717Z,19.57
2019-05-01T02:50:51.772Z,19.13
2019-05-01T02:53:23.417Z,18.70
2019-05-01T02:56:12.861Z,19.97
2019-05-01T02:58:43.531Z,20.07
2019-05-01T03:01:14.413Z,20.73
2019-05-01T03:03:43.794Z,19.60
2019-05-01T03:06:12.873Z,19.43
2019-05-01T03:08:41.939Z,19.57
2019-05-01T03:11:11.005Z,19.83
2019-05-01T03:13:42.900Z,20.50
2019-05-01T03:16:11.791Z,21.47
2019-05-01T03:18:45.649Z,20.00
2019-05-01T03:21:21.072Z,19.70
2019-05-01T03:23:53.084Z,20.73
2019-05-01T03:26:22.116Z,21.00
2019-05-01T03:28:51.160Z,21.90
2019-05-01T03:31:20.183Z,21.90
2019-05-01T03:33:49.314Z,23.33
2019-05-01T03:36:18.234Z,23.70
2019-05-01T03:38:47.522Z,23.77
2019-05-01T03:41:16.603Z,21.70
2019-05-01T03:43:45.647Z,24.23
2019-05-01T03:46:14.934Z,24.67
2019-05-01T03:48:43.940Z,22.90
2019-05-01T03:51:13.071Z,23.63
2019-05-01T03:53:42.380Z,24.47
2019-05-01T03:56:11.525Z,24.63
2019-05-01T03:58:40.709Z,24.47
2019-05-01T04:01:28.756Z,24.90
2019-05-01T04:04:10.419Z,23.33
2019-05-01T04:06:39.649Z,24.23
2019-05-01T04:09:08.910Z,21.87
2019-05-01T04:11:37.838Z,24.53
2019-05-01T04:14:06.879Z,21.97
2019-05-01T04:16:36.216Z,23.03
2019-05-01T04:19:05.529Z,21.57
2019-05-01T04:21:44.258Z,21.27
2019-05-01T04:24:13.227Z,25.20
2019-05-01T04:26:42.447Z,22.93
2019-05-01T04:29:30.865Z,24.57
2019-05-01T04:32:51.982Z,24.83
2019-05-01T04:35:27.590Z,24.23
2019-05-01T04:37:58.818Z,24.77
2019-05-01T04:40:27.907Z,23.73
2019-05-01T04:42:57.011Z,24.37
2019-05-01T04:45:26.367Z,26.13
2019-05-01T04:47:56.021Z,24.60
2019-05-01T04:50:25.400Z,24.23
2019-05-01T04:52:54.898Z,24.53
2019-05-01T04:55:24.349Z,23.10
2019-05-01T04:57:53.410Z,23.57
2019-05-01T05:00:22.493Z,23.90
2019-05-01T05:03:04.904Z,23.77
2019-05-01T05:05:31.630Z,23.87
2019-05-01T05:08:00.853Z,22.30
2019-05-01T05:10:30.165Z,23.70
2019-05-01T05:13:30.812Z,24.70
2019-05-01T05:16:22.409Z,24.07
2019-05-01T05:18:51.578Z,24.23
2019-05-01T05:21:20.863Z,23.80
2019-05-01T05:23:50.368Z,23.97
2019-05-01T05:26:19.658Z,23.27
2019-05-01T05:28:51.015Z,23.97
2019-05-01T05:31:22.288Z,24.20
2019-05-01T05:33:53.742Z,23.70
2019-05-01T05:36:25.498Z,24.93
2019-05-01T05:39:00.201Z,23.90
2019-05-01T05:41:31.360Z,25.50
2019-05-01T05:44:01.638Z,22.73
2019-05-01T05:46:30.664Z,22.73
2019-05-01T05:48:59.586Z,23.50
2019-05-01T05:51:54.312Z,23.77
2019-05-01T05:54:48.405Z,23.37
2019-05-01T05:57:25.732Z,23.27
2019-05-01T06:00:01.371Z,24.17
2019-05-01T06:02:51.111Z,22.90
2019-05-01T06:05:30.982Z,22.93
2019-05-01T06:08:20.363Z,23.57
2019-05-01T06:11:17.047Z,23.80
2019-05-01T06:14:04.036Z,23.67
2019-05-01T06:16:46.996Z,23.63
2019-05-01T06:19:34.636Z,20.90
2019-05-01T06:22:12.550Z,23.00
2019-05-01T06:24:45.321Z,21.90
2019-05-01T06:27:15.051Z,21.83
2019-05-01T06:29:46.247Z,23.10
2019-05-01T06:32:15.292Z,23.67
2019-05-01T06:34:44.287Z,22.53
2019-05-01T06:37:13.277Z,22.47
2019-05-01T06:39:42.890Z,22.87
2019-05-01T06:42:15.246Z,23.87
2019-05-01T06:44:56.094Z,23.67
2019-05-01T06:47:31.142Z,22.80
2019-05-01T06:50:24.076Z,22.13
2019-05-01T06:52:53.761Z,26.23
2019-05-01T06:55:27.352Z,22.97
2019-05-01T06:57:53.669Z,24.30
2019-05-01T07:00:22.865Z,23.93
2019-05-01T07:02:54.218Z,23.90
2019-05-01T07:05:24.659Z,24.33
2019-05-01T07:07:56.077Z,24.83
2019-05-01T07:10:31.643Z,24.53
2019-05-01T07:12:59.802Z,18.13
2019-05-01T07:15:30.147Z,27.53
2019-05-01T07:17:59.861Z,25.63
2019-05-01T07:20:47.280Z,24.13
2019-05-01T07:23:18.692Z,25.77
2019-05-01T07:25:48.074Z,26.83
2019-05-01T07:28:17.340Z,26.77
2019-05-01T07:31:08.288Z,27.87
2019-05-01T07:33:37.489Z,29.67
2019-05-01T07:36:14.961Z,25.53
2019-05-01T07:38:38.807Z,26.83
2019-05-01T07:41:08.620Z,27.83
2019-05-01T07:44:02.969Z,24.47
2019-05-01T07:46:54.314Z,26.27
2019-05-01T07:49:31.780Z,31.02
2019-05-01T07:52:01.790Z,27.13
2019-05-01T07:54:30.870Z,30.43
2019-05-01T07:57:03.222Z,24.20
2019-05-01T07:59:30.666Z,28.47
2019-05-01T08:02:02.945Z,26.27
2019-05-01T08:04:36.380Z,29.73
2019-05-01T08:07:02.619Z,25.33
2019-05-01T08:09:31.556Z,27.47
2019-05-01T08:12:00.573Z,29.00
2019-05-01T08:14:29.489Z,28.13
2019-05-01T08:16:58.444Z,27.97
2019-05-01T08:19:46.448Z,26.40
2019-05-01T08:22:19.122Z,28.83
2019-05-01T08:24:48.043Z,27.40
2019-05-01T08:27:24.037Z,26.33
2019-05-01T08:29:59.968Z,27.87
2019-05-01T08:32:40.939Z,23.03
2019-05-01T08:35:11.847Z,23.00
2019-05-01T08:37:40.779Z,25.47
2019-05-01T08:40:09.903Z,26.83
2019-05-01T08:42:42.745Z,22.97
2019-05-01T08:45:29.685Z,24.30
2019-05-01T08:48:12.617Z,21.77
2019-05-01T08:50:41.657Z,21.27
2019-05-01T08:53:10.595Z,22.07
2019-05-01T08:55:45.223Z,19.87
2019-05-01T08:58:13.961Z,20.83
2019-05-01T09:00:43.464Z,20.80
2019-05-01T09:03:13.500Z,22.33
2019-05-01T09:05:42.845Z,20.20
2019-05-01T09:08:11.925Z,22.03
2019-05-01T09:10:40.814Z,23.00
2019-05-01T09:13:09.933Z,19.77
2019-05-01T09:15:38.933Z,17.67
2019-05-01T09:18:08.000Z,19.93
2019-05-01T09:20:38.802Z,17.67
2019-05-01T09:23:09.506Z,16.70
2019-05-01T09:25:44.348Z,17.80
2019-05-01T09:28:35.897Z,17.83
2019-05-01T09:31:03.893Z,20.02
2019-05-01T09:33:32.827Z,18.57
2019-05-01T09:36:01.764Z,18.10
2019-05-01T09:38:30.885Z,17.37
2019-05-01T09:40:59.811Z,19.27
2019-05-01T09:43:30.924Z,16.90
2019-05-01T09:45:59.480Z,15.10
2019-05-01T09:48:28.352Z,12.77
2019-05-01T09:51:17.876Z,13.20
2019-05-01T09:54:05.623Z,14.63
2019-05-01T09:56:31.946Z,16.23
2019-05-01T09:59:00.879Z,15.17
2019-05-01T10:01:32.818Z,14.27
2019-05-01T10:04:00.654Z,14.47
2019-05-01T10:06:29.537Z,13.50
2019-05-01T10:08:58.547Z,13.80
2019-05-01T10:11:27.521Z,11.53
2019-05-01T10:13:58.441Z,14.00
2019-05-01T10:16:26.991Z,13.63
2019-05-01T10:18:55.902Z,14.03
2019-05-01T10:21:27.129Z,12.30
2019-05-01T10:23:55.473Z,12.47
2019-05-01T10:26:25.966Z,14.43
2019-05-01T10:29:11.542Z,16.52
2019-05-01T10:31:58.294Z,14.37
2019-05-01T10:34:46.403Z,15.47
2019-05-01T10:37:15.219Z,14.60
2019-05-01T10:39:44.256Z,13.70
2019-05-01T10:42:13.096Z,14.47
2019-05-01T10:44:42.007Z,16.27
2019-05-01T10:47:10.856Z,14.30
2019-05-01T10:49:39.729Z,16.00
2019-05-01T10:52:14.363Z,15.17
2019-05-01T10:54:39.195Z,13.80
2019-05-01T10:57:08.247Z,16.07
2019-05-01T10:59:37.053Z,15.90
2019-05-01T11:02:07.966Z,15.67
2019-05-01T11:04:37.008Z,16.13
2019-05-01T11:07:06.388Z,17.50
2019-05-01T11:09:35.296Z,16.87
2019-05-01T11:12:04.284Z,15.73
2019-05-01T11:14:33.114Z,18.23
2019-05-01T11:17:02.095Z,16.53
2019-05-01T11:19:31.269Z,14.30
2019-05-01T11:22:00.167Z,15.80
2019-05-01T11:24:29.049Z,15.40
2019-05-01T11:26:58.035Z,15.87
2019-05-01T11:29:26.849Z,17.73
2019-05-01T11:32:05.509Z,15.37
2019-05-01T11:34:50.250Z,16.63
2019-05-01T11:37:41.009Z,13.87
2019-05-01T11:40:15.289Z,14.73
2019-05-01T11:42:44.220Z,15.63
2019-05-01T11:45:13.296Z,14.43
2019-05-01T11:47:42.115Z,15.50
2019-05-01T11:50:11.116Z,12.87
2019-05-01T11:52:39.923Z,13.63
2019-05-01T11:55:09.067Z,12.63
2019-05-01T11:57:37.979Z,14.30
2019-05-01T12:00:07.625Z,13.53
2019-05-01T12:02:36.533Z,15.23
2019-05-01T12:05:06.098Z,14.33
2019-05-01T12:07:35.052Z,13.37
2019-05-01T12:10:04.432Z,14.43
2019-05-01T12:12:34.848Z,13.63
2019-05-01T12:15:04.538Z,14.87
2019-05-01T12:17:42.340Z,13.13
2019-05-01T12:20:11.788Z,13.17
2019-05-01T12:22:40.590Z,12.93
2019-05-01T12:25:09.680Z,13.37
2019-05-01T12:27:38.581Z,13.73
2019-05-01T12:30:08.114Z,14.03
2019-05-01T12:32:37.020Z,14.23
2019-05-01T12:35:06.333Z,15.20
2019-05-01T12:37:42.654Z,14.20
2019-05-01T12:40:15.300Z,13.37
2019-05-01T12:42:44.408Z,14.40
2019-05-01T12:45:15.191Z,13.17
2019-05-01T12:48:03.241Z,13.07
2019-05-01T12:50:32.185Z,12.60
2019-05-01T12:53:13.963Z,14.33
2019-05-01T12:56:04.803Z,11.77
2019-05-01T12:58:35.328Z,13.87
2019-05-01T13:01:05.560Z,13.97
2019-05-01T13:03:34.673Z,15.40
2019-05-01T13:06:03.563Z,14.73
2019-05-01T13:08:32.374Z,14.20
2019-05-01T13:11:02.085Z,13.73
2019-05-01T13:13:30.900Z,13.73
2019-05-01T13:15:59.803Z,13.43
2019-05-01T13:18:28.686Z,11.90
2019-05-01T13:20:57.511Z,10.67
2019-05-01T13:23:26.452Z,11.40
2019-05-01T13:25:58.081Z,11.17
2019-05-01T13:28:55.263Z,11.90
2019-05-01T13:31:43.340Z,10.87
2019-05-01T13:34:12.383Z,10.40
2019-05-01T13:36:41.348Z,12.03
2019-05-01T13:39:12.036Z,12.33
2019-05-01T13:41:40.959Z,10.93
2019-05-01T13:44:09.919Z,11.77
2019-05-01T13:46:38.775Z,10.50
2019-05-01T13:49:07.785Z,9.47
2019-05-01T13:51:36.612Z,10.37
2019-05-01T13:54:06.919Z,11.00
2019-05-01T13:56:36.079Z,10.27
2019-05-01T13:59:06.912Z,11.30
2019-05-01T14:01:35.768Z,9.90
2019-05-01T14:04:04.776Z,8.60
2019-05-01T14:06:33.663Z,9.93
2019-05-01T14:09:02.941Z,10.50
2019-05-01T14:11:31.785Z,10.73
2019-05-01T14:14:00.587Z,9.33
2019-05-01T14:16:29.494Z,10.97
2019-05-01T14:18:58.343Z,10.60
2019-05-01T14:21:32.731Z,10.50
2019-05-01T14:24:23.698Z,11.27
2019-05-01T14:26:52.525Z,10.20
2019-05-01T14:29:21.390Z,9.07
2019-05-01T14:31:50.211Z,10.30
2019-05-01T14:34:19.144Z,10.90
2019-05-01T14:36:47.976Z,9.50
2019-05-01T14:39:16.889Z,10.17
2019-05-01T14:41:45.773Z,9.90
2019-05-01T14:44:14.733Z,10.13
2019-05-01T14:46:43.636Z,9.40
2019-05-01T14:49:12.494Z,9.80
2019-05-01T14:51:41.542Z,8.67
2019-05-01T14:54:10.558Z,9.20
2019-05-01T14:56:39.481Z,9.57
2019-05-01T14:59:08.395Z,9.43
2019-05-01T15:01:37.258Z,9.20
2019-05-01T15:04:06.214Z,9.28
2019-05-01T15:06:35.116Z,9.43
2019-05-01T15:09:06.309Z,8.03
2019-05-01T15:11:35.371Z,8.93
2019-05-01T15:14:42.127Z,8.40
2019-05-01T15:17:24.150Z,7.90
2019-05-01T15:20:00.358Z,8.03
2019-05-01T15:22:29.360Z,7.80
2019-05-01T15:24:58.394Z,7.70
2019-05-01T15:27:27.294Z,7.93
2019-05-01T15:29:56.282Z,8.80
2019-05-01T15:32:25.100Z,7.77
2019-05-01T15:34:54.061Z,7.87
2019-05-01T15:37:22.989Z,7.63
2019-05-01T15:39:59.194Z,8.70
2019-05-01T15:42:33.593Z,7.97
2019-05-01T15:45:02.517Z,8.07
2019-05-01T15:47:31.325Z,8.97
2019-05-01T15:50:00.331Z,9.43
2019-05-01T15:52:29.208Z,8.23
2019-05-01T15:54:58.181Z,9.17
2019-05-01T15:57:27.090Z,9.00
2019-05-01T15:59:55.967Z,9.23
2019-05-01T16:02:24.887Z,8.70
2019-05-01T16:04:53.800Z,9.67
2019-05-01T16:07:22.724Z,9.40
2019-05-01T16:09:51.810Z,8.57
2019-05-01T16:12:29.094Z,8.63
2019-05-01T16:14:57.986Z,8.07
2019-05-01T16:17:27.054Z,8.40
2019-05-01T16:19:55.928Z,8.73
2019-05-01T16:22:24.937Z,9.33
2019-05-01T16:24:53.858Z,8.50
2019-05-01T16:27:22.732Z,8.40
2019-05-01T16:29:51.633Z,8.90
2019-05-01T16:32:20.517Z,9.60
2019-05-01T16:34:49.321Z,9.13
2019-05-01T16:37:18.293Z,9.17
2019-05-01T16:40:08.699Z,8.97
2019-05-01T16:42:39.930Z,8.70
2019-05-01T16:45:10.441Z,8.77
2019-05-01T16:47:41.310Z,10.63
2019-05-01T16:50:10.775Z,9.77
2019-05-01T16:52:40.768Z,9.80
2019-05-01T16:55:09.915Z,8.53
2019-05-01T16:57:41.869Z,9.23
2019-05-01T17:00:12.509Z,9.87
2019-05-01T17:02:54.454Z,9.60
2019-05-01T17:05:39.244Z,8.90
2019-05-01T17:08:12.249Z,9.87
2019-05-01T17:10:43.701Z,10.47
2019-05-01T17:13:12.599Z,10.50
2019-05-01T17:15:43.873Z,10.93
2019-05-01T17:18:13.896Z,12.27
2019-05-01T17:20:42.848Z,12.13
2019-05-01T17:23:11.874Z,11.33
2019-05-01T17:25:40.916Z,10.87
2019-05-01T17:28:09.765Z,12.10
2019-05-01T17:30:41.221Z,11.57
2019-05-01T17:33:10.473Z,11.87
2019-05-01T17:35:41.680Z,11.43
2019-05-01T17:38:10.173Z,11.30
2019-05-01T17:40:39.103Z,11.27
2019-05-01T17:43:13.422Z,11.37
2019-05-01T17:45:38.796Z,11.93
2019-05-01T17:48:07.645Z,12.40
2019-05-01T17:50:36.541Z,13.00
2019-05-01T17:53:05.673Z,12.97
2019-05-01T17:55:34.587Z,13.27
2019-05-01T17:58:03.551Z,13.30
2019-05-01T18:00:54.751Z,13.20
2019-05-01T18:03:48.705Z,13.57
2019-05-01T18:06:20.448Z,14.17
2019-05-01T18:09:01.888Z,14.10
2019-05-01T18:11:19.861Z,13.27
2019-05-01T18:13:48.749Z,13.67
2019-05-01T18:16:17.781Z,13.87
2019-05-01T18:18:46.917Z,14.33
2019-05-01T18:21:16.410Z,14.67
2019-05-01T18:24:02.369Z,14.90
2019-05-01T18:26:38.715Z,13.40
2019-05-01T18:29:29.246Z,14.77
2019-05-01T18:31:58.179Z,15.03
2019-05-01T18:34:26.986Z,15.07
2019-05-01T18:37:05.536Z,14.57
2019-05-01T18:39:38.906Z,16.07
2019-05-01T18:42:12.816Z,16.37
2019-05-01T18:44:42.415Z,14.93
2019-05-01T18:47:12.568Z,16.50
2019-05-01T18:49:41.683Z,16.23
2019-05-01T18:52:11.068Z,16.30
2019-05-01T18:54:39.947Z,16.60
2019-05-01T18:57:09.095Z,16.60
2019-05-01T18:59:37.918Z,16.73
2019-05-01T19:02:06.775Z,17.07
2019-05-01T19:04:35.689Z,17.40
2019-05-01T19:07:05.041Z,17.83
2019-05-01T19:09:36.701Z,17.23
2019-05-01T19:12:07.591Z,16.77
2019-05-01T19:14:36.420Z,19.20
2019-05-01T19:17:06.052Z,18.20
2019-05-01T19:19:35.415Z,18.67
2019-05-01T19:22:04.769Z,18.20
2019-05-01T19:24:38.050Z,18.00
2019-05-01T19:27:04.879Z,18.73
2019-05-01T19:29:34.117Z,18.83
2019-05-01T19:32:03.363Z,18.77
2019-05-01T19:34:32.204Z,18.40
2019-05-01T19:37:01.196Z,18.63
2019-05-01T19:39:42.435Z,19.03
2019-05-01T19:42:01.359Z,19.17
2019-05-01T19:44:30.769Z,18.80
2019-05-01T19:46:59.743Z,19.63
2019-05-01T19:49:29.464Z,19.47
2019-05-01T19:52:00.702Z,19.43
2019-05-01T19:54:30.238Z,19.87
2019-05-01T19:56:59.130Z,19.93
2019-05-01T19:59:28.131Z,19.87
2019-05-01T20:01:57.251Z,20.90
2019-05-01T20:04:26.142Z,21.47
2019-05-01T20:06:55.160Z,20.33
2019-05-01T20:09:24.567Z,19.60
2019-05-01T20:11:53.503Z,19.57
2019-05-01T20:14:23.976Z,21.27
2019-05-01T20:16:52.964Z,22.27
2019-05-01T20:19:21.920Z,20.60
2019-05-01T20:21:50.899Z,20.27
2019-05-01T20:24:19.818Z,21.57
2019-05-01T20:26:48.804Z,20.30
2019-05-01T20:29:17.898Z,20.63
2019-05-01T20:31:50.777Z,20.60
2019-05-01T20:34:18.708Z,20.83
2019-05-01T20:36:47.909Z,21.20
2019-05-01T20:39:17.058Z,21.50
2019-05-01T20:41:48.728Z,21.70
2019-05-01T20:44:23.264Z,22.23
2019-05-01T20:46:48.336Z,23.40
2019-05-01T20:49:17.174Z,22.73
2019-05-01T20:51:46.006Z,22.83
2019-05-01T20:54:14.871Z,22.40
2019-05-01T20:56:57.985Z,21.83
2019-05-01T20:59:26.925Z,21.77
2019-05-01T21:01:59.617Z,23.13
2019-05-01T21:04:49.021Z,24.40
2019-05-01T21:07:21.978Z,25.13
2019-05-01T21:09:57.241Z,23.20
2019-05-01T21:12:21.590Z,24.13
2019-05-01T21:14:51.095Z,23.67
2019-05-01T21:17:20.091Z,23.87
2019-05-01T21:19:48.973Z,24.07
2019-05-01T21:22:17.997Z,25.20
2019-05-01T21:24:46.847Z,24.23
2019-05-01T21:27:15.798Z,23.77
2019-05-01T21:29:44.765Z,26.23
2019-05-01T21:32:13.907Z,23.77
2019-05-01T21:34:44.318Z,25.07
2019-05-01T21:37:13.218Z,25.13
2019-05-01T21:39:43.652Z,25.43
2019-05-01T21:42:15.825Z,23.80
2019-05-01T21:44:43.651Z,25.20
2019-05-01T21:47:13.942Z,24.47
2019-05-01T21:49:43.114Z,24.47
2019-05-01T21:52:13.513Z,23.67
2019-05-01T21:54:42.567Z,24.87
2019-05-01T21:57:11.876Z,23.90
2019-05-01T21:59:44.697Z,23.10
2019-05-01T22:02:12.713Z,27.53
2019-05-01T22:04:41.575Z,24.57
2019-05-01T22:07:10.739Z,23.80
2019-05-01T22:09:39.813Z,26.03
2019-05-01T22:12:12.993Z,24.97
2019-05-01T22:14:53.240Z,24.70
2019-05-01T22:17:32.211Z,25.23
2019-05-01T22:19:59.098Z,25.27
2019-05-01T22:22:38.687Z,24.07
2019-05-01T22:25:14.962Z,25.00
2019-05-01T22:27:47.673Z,24.23
2019-05-01T22:30:27.245Z,24.23
2019-05-01T22:32:58.982Z,24.73
2019-05-01T22:35:33.573Z,24.20
2019-05-01T22:38:02.940Z,24.00
2019-05-01T22:41:06.602Z,25.97
2019-05-01T22:43:31.602Z,25.00
2019-05-01T22:46:01.998Z,24.83
2019-05-01T22:48:31.481Z,26.20
2019-05-01T22:51:06.153Z,25.13
2019-05-01T22:53:35.143Z,25.50
2019-05-01T22:56:04.241Z,24.97
2019-05-01T22:58:33.277Z,26.20
2019-05-01T23:01:02.302Z,25.77
2019-05-01T23:03:48.768Z,25.87
2019-05-01T23:06:18.722Z,24.97
2019-05-01T23:08:47.692Z,24.70
2019-05-01T23:11:19.995Z,25.63
2019-05-01T23:13:47.544Z,24.50
2019-05-01T23:16:18.069Z,26.00
2019-05-01T23:18:51.401Z,25.47
2019-05-01T23:21:17.591Z,25.43
2019-05-01T23:23:46.428Z,25.33
2019-05-01T23:26:16.577Z,26.07
2019-05-01T23:28:45.899Z,25.37
2019-05-01T23:31:14.729Z,26.93
2019-05-01T23:33:45.706Z,25.87
2019-05-01T23:36:23.372Z,25.07
2019-05-01T23:38:44.782Z,22.87
2019-05-01T23:41:13.742Z,24.57
2019-05-01T23:43:42.759Z,24.73
2019-05-01T23:46:11.910Z,24.50
2019-05-01T23:48:40.719Z,27.00
2019-05-01T23:51:09.567Z,23.83
2019-05-01T23:53:38.481Z,26.70
2019-05-01T23:56:07.301Z,25.47
2019-05-01T23:58:36.134Z,25.03
